EHQE

Hoorn-a Sea

Hoorn-a Sea, The Netherlands
METAR EHQE 170225Z AUTO 18012KT 9999 NSC 16/15 Q1016 W///H///
Observed Flight Rules
Oct-17 @ 02:25 UTC (45 minutes ago) Visual Flight Rules
Wind Visibility Clouds
180° at 12 knots 10,000+ meters
  • Clear skies
Temperatures Readings
Current 16°C / 61°F
Dewpoint 15°C / 59°F
Humidity 94%
Altimeter 30" Hg
Pressure 1016 hPa
Elevation 50
METAR EHQE 170225Z AUTO 18012KT 9999 NSC 16/15 Q1016 W///H///
Observed Flight Rules
Oct-17 @ 02:25 UTC
(45 minutes ago)
VFR
Wind Visibility
180° at 12 knots 10,000+ meters
Clouds
  • Clear skies
Temperature Dewpoint
16°C / 61°F 15°C / 59°F
Humidity Altimeter Pressure
94% 30" Hg 1016 hPa